createdAt,value
2023-02-28T00:01:46.613Z,9.50
2023-02-28T00:04:13.147Z,9.50
2023-02-28T00:06:39.678Z,9.60
2023-02-28T00:09:06.186Z,9.60
2023-02-28T00:11:32.765Z,9.50
2023-02-28T00:13:59.283Z,9.50
2023-02-28T00:16:25.799Z,9.50
2023-02-28T00:18:52.370Z,9.50
2023-02-28T00:21:22.618Z,9.50
2023-02-28T00:23:49.138Z,9.50
2023-02-28T00:29:10.613Z,9.60
2023-02-28T00:31:37.123Z,9.50
2023-02-28T00:34:03.631Z,9.50
2023-02-28T00:36:34.626Z,9.50
2023-02-28T00:39:01.126Z,9.60
2023-02-28T00:41:27.933Z,9.50
2023-02-28T00:43:54.688Z,9.50
2023-02-28T00:46:21.257Z,9.50
2023-02-28T00:48:47.775Z,9.60
2023-02-28T00:51:14.280Z,9.60
2023-02-28T00:53:40.772Z,9.50
2023-02-28T00:56:07.269Z,9.50
2023-02-28T00:58:33.767Z,9.50
2023-02-28T01:01:00.302Z,9.50
2023-02-28T01:03:26.833Z,9.50
2023-02-28T01:05:53.355Z,9.50
2023-02-28T01:08:19.862Z,9.50
2023-02-28T01:10:46.375Z,9.50
2023-02-28T01:13:12.874Z,9.40
2023-02-28T01:15:39.477Z,9.50
2023-02-28T01:18:06.002Z,9.40
2023-02-28T01:20:32.556Z,9.40
2023-02-28T01:22:59.061Z,9.50
2023-02-28T01:25:25.610Z,9.40
2023-02-28T01:27:52.123Z,9.50
2023-02-28T01:30:18.648Z,9.50
2023-02-28T01:32:45.161Z,9.50
2023-02-28T01:35:11.663Z,9.50
2023-02-28T01:37:38.161Z,9.50
2023-02-28T01:40:04.657Z,9.50
2023-02-28T01:42:31.194Z,9.50
2023-02-28T01:44:57.711Z,9.50
2023-02-28T01:47:24.210Z,9.50
2023-02-28T01:49:50.705Z,9.50
2023-02-28T01:52:17.200Z,9.50
2023-02-28T01:54:43.693Z,9.50
2023-02-28T01:57:10.210Z,9.60
2023-02-28T01:59:40.672Z,9.60
2023-02-28T02:02:07.224Z,9.60
2023-02-28T02:04:33.723Z,9.60
2023-02-28T02:07:04.691Z,9.60
2023-02-28T02:09:31.178Z,9.60
2023-02-28T02:11:57.684Z,9.50
2023-02-28T02:14:24.179Z,9.50
2023-02-28T02:16:50.680Z,9.50
2023-02-28T02:19:17.179Z,9.60
2023-02-28T02:21:43.669Z,9.60
2023-02-28T02:24:10.167Z,9.50
2023-02-28T02:26:36.686Z,9.50
2023-02-28T02:29:03.170Z,9.50
2023-02-28T02:31:29.975Z,9.50
2023-02-28T02:33:56.633Z,9.50
2023-02-28T02:36:23.124Z,9.50
2023-02-28T02:38:49.618Z,9.60
2023-02-28T02:41:16.107Z,9.60
2023-02-28T02:43:42.588Z,9.50
2023-02-28T02:46:09.079Z,9.50
2023-02-28T02:48:35.583Z,9.50
2023-02-28T02:51:02.104Z,9.50
2023-02-28T02:53:28.587Z,9.50
2023-02-28T02:55:55.105Z,9.60
2023-02-28T02:58:21.580Z,9.50
2023-02-28T03:00:48.142Z,9.50
2023-02-28T03:03:14.631Z,9.50
2023-02-28T03:05:41.137Z,9.50
2023-02-28T03:08:07.626Z,9.50
2023-02-28T03:10:34.140Z,9.50
2023-02-28T03:13:00.622Z,9.40
2023-02-28T03:15:27.124Z,9.50
2023-02-28T03:17:53.576Z,9.50
2023-02-28T03:20:20.045Z,9.50
2023-02-28T03:22:46.518Z,9.50
2023-02-28T03:25:16.759Z,9.50
2023-02-28T03:27:43.238Z,9.50
2023-02-28T03:30:10.690Z,9.50
2023-02-28T03:32:37.237Z,9.50
2023-02-28T03:35:03.822Z,9.50
2023-02-28T03:37:30.343Z,9.50
2023-02-28T03:39:56.830Z,9.50
2023-02-28T03:42:23.340Z,9.50
2023-02-28T03:44:49.831Z,9.40
2023-02-28T03:47:16.309Z,9.40
2023-02-28T03:49:42.800Z,9.40
2023-02-28T03:52:09.284Z,9.40
2023-02-28T03:54:35.748Z,9.40
2023-02-28T03:57:02.214Z,9.40
2023-02-28T03:59:28.693Z,9.40
2023-02-28T04:01:55.236Z,9.40
2023-02-28T04:04:21.816Z,9.40
2023-02-28T04:06:49.229Z,9.40
2023-02-28T04:09:17.293Z,9.40
2023-02-28T04:11:43.808Z,9.40
2023-02-28T04:14:10.290Z,9.40
2023-02-28T04:16:36.884Z,9.40
2023-02-28T04:19:03.394Z,9.40
2023-02-28T04:21:30.168Z,9.50
2023-02-28T04:23:56.842Z,9.40
2023-02-28T04:26:23.337Z,9.40
2023-02-28T04:28:49.834Z,9.50
2023-02-28T04:31:16.378Z,9.40
2023-02-28T04:33:42.908Z,9.40
2023-02-28T04:36:09.446Z,9.40
2023-02-28T04:38:35.916Z,9.40
2023-02-28T04:41:02.421Z,9.40
2023-02-28T04:43:28.901Z,9.40
2023-02-28T04:45:55.398Z,9.40
2023-02-28T04:48:22.446Z,9.40
2023-02-28T04:50:48.959Z,9.40
2023-02-28T04:53:15.465Z,9.40
2023-02-28T04:55:41.945Z,9.30
2023-02-28T04:58:10.029Z,9.30
2023-02-28T05:00:41.002Z,9.30
2023-02-28T05:03:07.496Z,9.30
2023-02-28T05:05:33.960Z,9.30
2023-02-28T05:08:00.430Z,9.30
2023-02-28T05:10:26.899Z,9.30
2023-02-28T05:12:53.364Z,9.30
2023-02-28T05:15:19.820Z,9.30
2023-02-28T05:17:46.306Z,9.30
2023-02-28T05:20:15.690Z,9.30
2023-02-28T05:22:42.569Z,9.30
2023-02-28T05:25:09.072Z,9.30
2023-02-28T05:27:35.545Z,9.30
2023-02-28T05:30:02.032Z,9.30
2023-02-28T05:32:28.546Z,9.30
2023-02-28T05:34:55.059Z,9.40
2023-02-28T05:37:22.728Z,9.30
2023-02-28T05:39:49.268Z,9.40
2023-02-28T05:42:15.752Z,9.30
2023-02-28T05:44:42.236Z,9.40
2023-02-28T05:47:08.727Z,9.40
2023-02-28T05:49:35.201Z,9.30
2023-02-28T05:52:01.713Z,9.30
2023-02-28T05:54:28.810Z,9.30
2023-02-28T05:56:55.289Z,9.30
2023-02-28T05:59:21.778Z,9.30
2023-02-28T06:01:48.257Z,9.40
2023-02-28T06:04:30.418Z,9.40
2023-02-28T06:06:57.809Z,9.30
2023-02-28T06:09:24.277Z,9.30
2023-02-28T06:11:50.756Z,9.30
2023-02-28T06:14:17.258Z,9.30
2023-02-28T06:16:43.861Z,9.30
2023-02-28T06:19:10.381Z,9.30
2023-02-28T06:21:36.849Z,9.30
2023-02-28T06:24:03.325Z,9.30
2023-02-28T06:26:29.790Z,9.30
2023-02-28T06:28:56.311Z,9.30
2023-02-28T06:31:22.814Z,9.30
2023-02-28T06:33:49.342Z,9.30
2023-02-28T06:36:15.808Z,9.30
2023-02-28T06:38:42.290Z,9.30
2023-02-28T06:41:08.781Z,9.30
2023-02-28T06:43:35.289Z,9.30
2023-02-28T06:46:01.785Z,9.30
2023-02-28T06:48:28.309Z,9.40
2023-02-28T06:50:54.777Z,9.30
2023-02-28T06:53:21.264Z,9.30
2023-02-28T06:55:47.740Z,9.30
2023-02-28T06:58:14.201Z,9.30
2023-02-28T07:00:40.695Z,9.30
2023-02-28T07:03:07.169Z,9.30
2023-02-28T07:05:33.651Z,9.30
2023-02-28T07:08:00.146Z,9.30
2023-02-28T07:10:26.676Z,9.30
2023-02-28T07:12:53.174Z,9.30
2023-02-28T07:15:19.662Z,9.30
2023-02-28T07:17:46.122Z,9.30
2023-02-28T07:20:12.608Z,9.30
2023-02-28T07:22:39.093Z,9.30
2023-02-28T07:25:05.578Z,9.30
2023-02-28T07:27:32.049Z,9.30
2023-02-28T07:29:58.507Z,9.30
2023-02-28T07:32:25.055Z,9.30
2023-02-28T07:34:51.625Z,9.30
2023-02-28T07:37:18.133Z,9.30
2023-02-28T07:39:44.612Z,9.20
2023-02-28T07:42:11.081Z,9.20
2023-02-28T07:44:37.547Z,9.30
2023-02-28T07:47:04.049Z,9.30
2023-02-28T07:49:30.604Z,9.30
2023-02-28T07:51:57.062Z,9.30
2023-02-28T07:54:23.556Z,9.20
2023-02-28T07:56:50.023Z,9.30
2023-02-28T07:59:16.969Z,9.20
2023-02-28T08:01:43.476Z,9.30
2023-02-28T08:04:10.032Z,9.20
2023-02-28T08:06:36.515Z,9.20
2023-02-28T08:09:02.993Z,9.20
2023-02-28T08:11:29.662Z,9.20
2023-02-28T08:13:56.276Z,9.20
2023-02-28T08:16:22.871Z,9.20
2023-02-28T08:18:49.451Z,9.30
2023-02-28T08:21:15.942Z,9.30
2023-02-28T08:23:42.474Z,9.20
2023-02-28T08:26:08.957Z,9.20
2023-02-28T08:28:35.441Z,9.20
2023-02-28T08:31:02.133Z,9.20
2023-02-28T08:33:28.642Z,9.20
2023-02-28T08:35:55.201Z,9.20
2023-02-28T08:38:21.704Z,9.20
2023-02-28T08:40:48.179Z,9.20
2023-02-28T08:43:14.652Z,9.20
2023-02-28T08:45:41.180Z,9.20
2023-02-28T08:48:07.667Z,9.20
2023-02-28T08:50:34.135Z,9.20
2023-02-28T08:53:00.604Z,9.10
2023-02-28T08:55:27.082Z,9.20
2023-02-28T08:57:53.561Z,9.20
2023-02-28T09:00:20.075Z,9.20
2023-02-28T09:02:46.550Z,9.20
2023-02-28T09:05:13.074Z,9.20
2023-02-28T09:07:39.561Z,9.20
2023-02-28T09:10:06.111Z,9.20
2023-02-28T09:12:32.591Z,9.20
2023-02-28T09:14:59.058Z,9.10
2023-02-28T09:17:25.644Z,9.10
2023-02-28T09:19:57.490Z,9.20
2023-02-28T09:22:29.011Z,9.20
2023-02-28T09:24:55.513Z,9.20
2023-02-28T09:27:22.019Z,9.10
2023-02-28T09:29:48.480Z,9.20
2023-02-28T09:32:15.032Z,9.10
2023-02-28T09:34:41.564Z,9.10
2023-02-28T09:37:08.073Z,9.10
2023-02-28T09:39:34.561Z,9.20
2023-02-28T09:42:05.037Z,9.20
2023-02-28T09:44:31.541Z,9.20
2023-02-28T09:46:58.011Z,9.20
2023-02-28T09:49:24.474Z,9.20
2023-02-28T09:51:50.967Z,9.20
2023-02-28T09:54:17.448Z,9.20
2023-02-28T09:56:43.963Z,9.10
2023-02-28T09:59:10.468Z,9.10
2023-02-28T10:01:37.038Z,9.20
2023-02-28T10:04:03.564Z,9.10
2023-02-28T10:06:30.059Z,9.10
2023-02-28T10:08:56.556Z,9.10
2023-02-28T10:11:23.044Z,9.10
2023-02-28T10:13:49.541Z,9.10
2023-02-28T10:16:17.102Z,9.10
2023-02-28T10:18:43.609Z,9.20
2023-02-28T10:21:10.115Z,9.20
2023-02-28T10:23:36.684Z,9.10
2023-02-28T10:26:03.211Z,9.20
2023-02-28T10:28:29.689Z,9.10
2023-02-28T10:30:59.091Z,9.10
2023-02-28T10:33:25.650Z,9.10
2023-02-28T10:35:52.213Z,9.10
2023-02-28T10:38:18.706Z,9.00
2023-02-28T10:40:45.231Z,9.00
2023-02-28T10:43:11.703Z,9.00
2023-02-28T10:45:38.222Z,9.10
2023-02-28T10:48:04.739Z,9.10
2023-02-28T10:50:31.206Z,9.00
2023-02-28T10:52:57.685Z,9.00
2023-02-28T10:55:24.153Z,9.00
2023-02-28T10:57:50.667Z,9.10
2023-02-28T11:00:17.167Z,9.00
2023-02-28T11:02:43.906Z,9.00
2023-02-28T11:05:10.514Z,9.00
2023-02-28T11:07:50.450Z,9.10
2023-02-28T11:10:19.421Z,9.10
2023-02-28T11:12:52.237Z,9.10
2023-02-28T11:15:20.034Z,9.10
2023-02-28T11:17:46.605Z,9.20
2023-02-28T11:20:13.099Z,9.10
2023-02-28T11:22:39.569Z,9.20
2023-02-28T11:25:06.049Z,9.10
2023-02-28T11:27:32.548Z,9.10
2023-02-28T11:29:59.026Z,9.10
2023-02-28T11:32:25.625Z,9.20
2023-02-28T11:34:52.195Z,9.10
2023-02-28T11:37:18.688Z,9.10
2023-02-28T11:39:45.196Z,9.10
2023-02-28T11:42:11.753Z,9.10
2023-02-28T11:44:38.232Z,9.10
2023-02-28T11:47:04.744Z,9.20
2023-02-28T11:49:31.225Z,9.10
2023-02-28T11:51:57.733Z,9.20
2023-02-28T11:54:24.205Z,9.20
2023-02-28T11:56:50.711Z,9.30
2023-02-28T11:59:17.190Z,9.30
2023-02-28T12:01:43.694Z,9.30
2023-02-28T12:04:11.125Z,9.40
2023-02-28T12:06:37.631Z,9.30
2023-02-28T12:09:04.120Z,9.30
2023-02-28T12:11:31.003Z,9.30
2023-02-28T12:13:57.649Z,9.30
2023-02-28T12:16:24.138Z,9.40
2023-02-28T12:18:50.647Z,9.40
2023-02-28T12:21:17.126Z,9.40
2023-02-28T12:23:43.608Z,9.40
2023-02-28T12:26:10.073Z,9.40
2023-02-28T12:28:36.571Z,9.40
2023-02-28T12:31:03.064Z,9.40
2023-02-28T12:33:30.591Z,9.40
2023-02-28T12:35:57.175Z,9.40
2023-02-28T12:38:23.739Z,9.40
2023-02-28T12:40:50.261Z,9.40
2023-02-28T12:43:16.795Z,9.50
2023-02-28T12:45:43.412Z,9.50
2023-02-28T12:48:09.963Z,9.50
2023-02-28T12:50:36.416Z,9.60
2023-02-28T12:53:02.892Z,9.50
2023-02-28T12:55:29.363Z,9.60
2023-02-28T12:57:55.846Z,9.60
2023-02-28T13:00:22.327Z,9.60
2023-02-28T13:02:48.842Z,9.60
2023-02-28T13:05:15.309Z,9.60
2023-02-28T13:07:41.814Z,9.60
2023-02-28T13:10:08.284Z,9.60
2023-02-28T13:12:34.782Z,9.60
2023-02-28T13:15:01.264Z,9.60
2023-02-28T13:17:27.774Z,9.70
2023-02-28T13:19:54.278Z,9.50
2023-02-28T13:22:20.753Z,9.60
2023-02-28T13:24:47.250Z,9.60
2023-02-28T13:27:13.727Z,9.60
2023-02-28T13:29:40.244Z,9.60
2023-02-28T13:32:06.998Z,9.60
2023-02-28T13:34:33.639Z,9.60
2023-02-28T13:37:00.136Z,9.60
2023-02-28T13:39:26.655Z,9.60
2023-02-28T13:41:53.134Z,9.70
2023-02-28T13:44:19.637Z,9.60
2023-02-28T13:46:46.128Z,9.60
2023-02-28T13:49:12.655Z,9.70
2023-02-28T13:51:39.134Z,9.60
2023-02-28T13:54:05.615Z,9.60
2023-02-28T13:56:32.105Z,9.60
2023-02-28T13:58:58.585Z,9.60
2023-02-28T14:01:25.074Z,9.60
2023-02-28T14:03:51.551Z,9.60
2023-02-28T14:06:18.053Z,9.60
2023-02-28T14:08:44.662Z,9.60
2023-02-28T14:11:11.155Z,9.60
2023-02-28T14:13:41.298Z,9.60
2023-02-28T14:16:07.823Z,9.70
2023-02-28T14:18:34.308Z,9.60
2023-02-28T14:21:00.784Z,9.70
2023-02-28T14:23:27.272Z,9.70
2023-02-28T14:25:53.748Z,9.60
2023-02-28T14:28:20.224Z,9.60
2023-02-28T14:30:46.732Z,9.60
2023-02-28T14:33:13.212Z,9.70
2023-02-28T14:35:39.709Z,9.60
2023-02-28T14:38:06.184Z,9.60
2023-02-28T14:40:32.709Z,9.60
2023-02-28T14:42:59.196Z,9.70
2023-02-28T14:45:25.721Z,9.60
2023-02-28T14:47:52.209Z,9.70
2023-02-28T14:50:18.730Z,9.70
2023-02-28T14:52:45.217Z,9.70
2023-02-28T14:55:11.736Z,9.70
2023-02-28T14:57:38.510Z,9.70
2023-02-28T15:00:05.046Z,9.70
2023-02-28T15:02:37.670Z,9.70
2023-02-28T15:05:05.340Z,9.70
2023-02-28T15:07:31.852Z,9.70
2023-02-28T15:09:59.269Z,9.70
2023-02-28T15:14:53.179Z,9.70
2023-02-28T15:17:19.918Z,9.70
2023-02-28T15:19:46.445Z,9.70
2023-02-28T15:22:13.008Z,9.80
2023-02-28T15:24:39.510Z,9.70
2023-02-28T15:27:05.980Z,9.80
2023-02-28T15:29:32.436Z,9.80
2023-02-28T15:31:58.977Z,9.80
2023-02-28T15:34:28.521Z,9.80
2023-02-28T15:36:59.940Z,9.80
2023-02-28T15:39:26.402Z,9.90
2023-02-28T15:41:53.002Z,10.10
2023-02-28T15:44:19.495Z,10.80
2023-02-28T15:46:46.008Z,11.20
2023-02-28T15:49:12.492Z,11.30
2023-02-28T15:51:39.011Z,11.40
2023-02-28T15:54:05.525Z,11.00
2023-02-28T15:56:32.029Z,10.60
2023-02-28T15:58:58.541Z,10.40
2023-02-28T16:01:25.054Z,10.30
2023-02-28T16:03:51.539Z,10.20
2023-02-28T16:06:18.071Z,10.10
2023-02-28T16:08:44.579Z,10.10
2023-02-28T16:11:11.090Z,10.00
2023-02-28T16:13:37.567Z,10.00
2023-02-28T16:16:04.170Z,9.90
2023-02-28T16:18:30.689Z,10.00
2023-02-28T16:20:57.177Z,10.00
2023-02-28T16:23:23.602Z,9.90
2023-02-28T16:25:50.341Z,9.90
2023-02-28T16:28:16.828Z,10.00
2023-02-28T16:30:43.394Z,9.90
2023-02-28T16:33:11.329Z,9.90
2023-02-28T16:35:37.827Z,9.90
2023-02-28T16:38:04.299Z,9.90
2023-02-28T16:40:30.808Z,9.90
2023-02-28T16:42:57.415Z,9.90
2023-02-28T16:45:23.911Z,9.90
2023-02-28T16:47:50.410Z,9.80
2023-02-28T16:50:16.877Z,9.90
2023-02-28T16:52:43.368Z,9.80
2023-02-28T16:55:09.846Z,9.80
2023-02-28T16:57:36.330Z,9.80
2023-02-28T17:00:02.811Z,9.80
2023-02-28T17:02:29.507Z,9.80
2023-02-28T17:04:56.044Z,9.80
2023-02-28T17:07:22.531Z,9.80
2023-02-28T17:09:49.039Z,9.80
2023-02-28T17:12:15.551Z,9.80
2023-02-28T17:14:42.036Z,9.80
2023-02-28T17:17:08.545Z,9.80
2023-02-28T17:19:35.040Z,9.70
2023-02-28T17:22:01.538Z,9.70
2023-02-28T17:24:31.142Z,9.80
2023-02-28T17:26:57.889Z,9.80
2023-02-28T17:29:24.371Z,9.70
2023-02-28T17:31:50.942Z,9.70
2023-02-28T17:34:17.458Z,9.70
2023-02-28T17:36:43.977Z,9.70
2023-02-28T17:39:10.464Z,9.70
2023-02-28T17:41:36.953Z,9.70
2023-02-28T17:44:03.432Z,9.70
2023-02-28T17:46:30.358Z,9.70
2023-02-28T17:48:56.987Z,9.70
2023-02-28T17:51:23.526Z,9.70
2023-02-28T17:53:50.016Z,9.70
2023-02-28T17:56:16.521Z,9.80
2023-02-28T17:58:43.021Z,9.70
2023-02-28T18:01:09.498Z,9.80
2023-02-28T18:03:35.980Z,9.80
2023-02-28T18:06:02.457Z,9.70
2023-02-28T18:08:28.935Z,9.70
2023-02-28T18:10:55.390Z,9.70
2023-02-28T18:13:21.888Z,9.70
2023-02-28T18:15:48.438Z,9.70
2023-02-28T18:18:15.030Z,9.70
2023-02-28T18:20:41.501Z,9.70
2023-02-28T18:23:07.984Z,9.70
2023-02-28T18:25:34.633Z,9.70
2023-02-28T18:28:01.145Z,9.70
2023-02-28T18:30:27.618Z,9.70
2023-02-28T18:32:54.159Z,9.70
2023-02-28T18:35:21.149Z,9.70
2023-02-28T18:37:47.699Z,9.70
2023-02-28T18:40:14.185Z,9.70
2023-02-28T18:42:40.703Z,9.70
2023-02-28T18:45:11.525Z,9.70
2023-02-28T18:47:38.026Z,9.70
2023-02-28T18:50:04.494Z,9.60
2023-02-28T18:52:30.988Z,9.60
2023-02-28T18:54:57.456Z,9.60
2023-02-28T18:57:23.949Z,9.60
2023-02-28T18:59:50.374Z,9.60
2023-02-28T19:02:16.852Z,9.60
2023-02-28T19:04:47.513Z,9.60
2023-02-28T19:07:13.987Z,9.60
2023-02-28T19:09:40.473Z,9.60
2023-02-28T19:12:06.956Z,9.60
2023-02-28T19:14:33.453Z,9.60
2023-02-28T19:16:59.930Z,9.60
2023-02-28T19:19:29.509Z,9.60
2023-02-28T19:21:56.331Z,9.60
2023-02-28T19:24:22.863Z,9.60
2023-02-28T19:26:49.345Z,9.60
2023-02-28T19:29:15.835Z,9.60
2023-02-28T19:31:42.321Z,9.50
2023-02-28T19:34:08.831Z,9.50
2023-02-28T19:36:35.281Z,9.50
2023-02-28T19:39:01.768Z,9.50
2023-02-28T19:41:28.503Z,9.50
2023-02-28T19:43:55.146Z,9.50
2023-02-28T19:46:21.662Z,9.50
2023-02-28T19:48:48.157Z,9.50
2023-02-28T19:51:14.775Z,9.50
2023-02-28T19:53:41.367Z,9.50
2023-02-28T19:56:07.845Z,9.50
2023-02-28T19:58:34.366Z,9.50
2023-02-28T20:01:01.063Z,9.50
2023-02-28T20:03:27.662Z,9.50
2023-02-28T20:05:54.138Z,9.50
2023-02-28T20:08:20.631Z,9.50
2023-02-28T20:10:47.113Z,9.50
2023-02-28T20:13:14.339Z,9.50
2023-02-28T20:15:40.861Z,9.50
2023-02-28T20:18:07.354Z,9.50
2023-02-28T20:20:35.560Z,9.50
2023-02-28T20:23:02.037Z,9.50
2023-02-28T20:25:28.542Z,9.50
2023-02-28T20:27:55.038Z,9.50
2023-02-28T20:30:21.531Z,9.50
2023-02-28T20:32:53.772Z,9.50
2023-02-28T20:35:20.334Z,9.50
2023-02-28T20:37:46.869Z,9.50
2023-02-28T20:40:13.395Z,9.50
2023-02-28T20:42:39.865Z,9.50
2023-02-28T20:45:06.350Z,9.40
2023-02-28T20:47:32.815Z,9.40
2023-02-28T20:49:59.304Z,9.50
2023-02-28T20:52:25.795Z,9.50
2023-02-28T20:54:52.320Z,9.50
2023-02-28T20:57:18.804Z,9.50
2023-02-28T20:59:45.325Z,9.50
2023-02-28T21:02:11.812Z,9.40
2023-02-28T21:04:38.304Z,9.50
2023-02-28T21:07:05.573Z,9.40
2023-02-28T21:09:32.097Z,9.40
2023-02-28T21:11:58.565Z,9.40
2023-02-28T21:14:25.070Z,9.40
2023-02-28T21:16:51.559Z,9.50
2023-02-28T21:19:18.024Z,9.40
2023-02-28T21:21:44.508Z,9.40
2023-02-28T21:24:11.003Z,9.40
2023-02-28T21:26:37.476Z,9.40
2023-02-28T21:29:03.979Z,9.40
2023-02-28T21:31:30.466Z,9.40
2023-02-28T21:33:56.927Z,9.40
2023-02-28T21:36:23.390Z,9.40
2023-02-28T21:38:53.622Z,9.40
2023-02-28T21:41:20.099Z,9.40
2023-02-28T21:43:46.568Z,9.40
2023-02-28T21:46:13.135Z,9.40
2023-02-28T21:48:39.674Z,9.40
2023-02-28T21:51:06.131Z,9.40
2023-02-28T21:53:32.625Z,9.40
2023-02-28T21:55:59.105Z,9.40
2023-02-28T21:58:25.596Z,9.40
2023-02-28T22:00:52.068Z,9.40
2023-02-28T22:03:18.534Z,9.40
2023-02-28T22:05:45.016Z,9.40
2023-02-28T22:08:11.485Z,9.40
2023-02-28T22:10:37.974Z,9.40
2023-02-28T22:13:04.473Z,9.40
2023-02-28T22:15:35.646Z,9.40
2023-02-28T22:18:02.108Z,9.40
2023-02-28T22:20:28.798Z,9.30
2023-02-28T22:22:55.282Z,9.40
2023-02-28T22:25:23.652Z,9.40
2023-02-28T22:27:50.111Z,9.40
2023-02-28T22:30:16.608Z,9.40
2023-02-28T22:32:43.066Z,9.50
2023-02-28T22:35:11.674Z,9.40
2023-02-28T22:37:38.162Z,9.40
2023-02-28T22:40:05.654Z,9.40
2023-02-28T22:42:32.135Z,9.40
2023-02-28T22:44:58.625Z,9.40
2023-02-28T22:47:25.132Z,9.40
2023-02-28T22:49:51.614Z,9.40
2023-02-28T22:52:18.079Z,9.40
2023-02-28T22:54:44.585Z,9.40
2023-02-28T22:57:11.047Z,9.40
2023-02-28T22:59:37.540Z,9.40
2023-02-28T23:02:05.126Z,9.40
2023-02-28T23:04:31.646Z,9.50
2023-02-28T23:06:58.147Z,9.40
2023-02-28T23:09:24.627Z,9.40
2023-02-28T23:11:51.182Z,9.40
2023-02-28T23:14:17.659Z,9.40
2023-02-28T23:16:44.185Z,9.40
2023-02-28T23:19:10.779Z,9.40
2023-02-28T23:21:37.278Z,9.40
2023-02-28T23:24:03.781Z,9.40
2023-02-28T23:26:30.534Z,9.30
2023-02-28T23:28:57.165Z,9.40
2023-02-28T23:31:23.726Z,9.40
2023-02-28T23:33:50.207Z,9.40
2023-02-28T23:36:16.704Z,9.40
2023-02-28T23:38:43.184Z,9.30
2023-02-28T23:41:09.665Z,9.40
2023-02-28T23:43:36.140Z,9.40
2023-02-28T23:46:02.669Z,9.40
2023-02-28T23:48:29.167Z,9.30
2023-02-28T23:50:55.660Z,9.30
2023-02-28T23:53:22.137Z,9.30
2023-02-28T23:55:48.638Z,9.30
2023-02-28T23:58:15.137Z,9.40
